createdAt,value
2017-06-28T07:13:03.879Z,22
2017-06-28T07:14:05.940Z,1
2017-06-28T07:15:07.991Z,1
2017-06-28T07:16:10.020Z,1
2017-06-28T07:17:12.086Z,1
2017-06-28T07:18:14.157Z,1
2017-06-28T07:19:16.210Z,1
2017-06-28T07:20:18.268Z,1
2017-06-28T07:21:20.676Z,1
2017-06-28T07:22:22.731Z,1
2017-06-28T07:23:24.778Z,1
2017-06-28T07:24:26.847Z,1
2017-06-28T07:25:28.951Z,1
2017-06-28T07:26:31.010Z,1
2017-06-28T07:27:33.057Z,1
2017-06-28T07:28:35.455Z,1
2017-06-28T07:29:37.516Z,1
2017-06-28T07:30:39.618Z,1
2017-06-28T07:31:41.674Z,1
2017-06-28T07:32:43.744Z,1
2017-06-28T07:33:45.811Z,1
2017-06-28T07:34:48.061Z,1
2017-06-28T07:35:50.646Z,1
2017-06-28T07:36:52.719Z,1
2017-06-28T07:37:54.990Z,1
2017-06-28T07:38:57.072Z,1
2017-06-28T07:39:59.479Z,1
2017-06-28T07:41:01.556Z,1
2017-06-28T07:42:03.947Z,1
2017-06-28T07:43:06.013Z,1
2017-06-28T07:44:08.088Z,1
2017-06-28T07:45:10.155Z,1
2017-06-28T07:46:12.221Z,1
2017-06-28T07:47:14.292Z,1
2017-06-28T07:48:17.389Z,1
2017-06-28T07:49:19.516Z,1
2017-06-28T07:50:21.919Z,1
2017-06-28T07:51:23.973Z,0
2017-06-28T07:52:26.037Z,0
2017-06-28T07:53:28.128Z,1
2017-06-28T07:54:30.196Z,1
2017-06-28T07:55:32.253Z,1
2017-06-28T07:56:34.312Z,1
2017-06-28T07:57:36.364Z,1
2017-06-28T07:58:38.449Z,0
2017-06-28T07:59:40.532Z,1
2017-06-28T08:00:43.293Z,0
2017-06-28T08:01:45.354Z,1
2017-06-28T08:02:47.419Z,1
2017-06-28T08:03:49.471Z,0
2017-06-28T08:04:51.885Z,0
2017-06-28T08:05:54.489Z,0
2017-06-28T08:06:56.552Z,0
2017-06-28T08:07:58.947Z,0
2017-06-28T08:09:01.357Z,0
2017-06-28T08:10:03.446Z,0
2017-06-28T08:11:05.505Z,0
2017-06-28T08:12:07.569Z,0
2017-06-28T08:13:09.632Z,0
2017-06-28T08:14:11.686Z,0
2017-06-28T08:15:13.753Z,0
2017-06-28T08:16:15.808Z,0
2017-06-28T08:17:17.871Z,0
2017-06-28T08:18:19.947Z,0
2017-06-28T08:19:22.010Z,0
2017-06-28T08:20:24.405Z,0
2017-06-28T08:21:26.469Z,0
2017-06-28T08:22:28.528Z,0
2017-06-28T08:23:30.597Z,0
2017-06-28T08:24:33.352Z,0
2017-06-28T08:25:35.756Z,0
2017-06-28T08:26:37.807Z,0
2017-06-28T09:03:50.023Z,312
2017-06-28T09:04:52.094Z,339
2017-06-28T09:05:54.495Z,291
2017-06-28T09:06:56.553Z,272
2017-06-28T09:07:58.610Z,288
2017-06-28T09:09:00.689Z,367
2017-06-28T09:10:02.751Z,460
2017-06-28T09:11:04.809Z,286
2017-06-28T09:12:06.868Z,279
2017-06-28T09:13:08.921Z,287
2017-06-28T09:14:10.975Z,260
2017-06-28T09:15:13.030Z,266
2017-06-28T09:16:15.096Z,257
2017-06-28T09:17:17.196Z,258
2017-06-28T09:18:19.241Z,248
2017-06-28T09:19:21.298Z,242
2017-06-28T09:20:23.357Z,241
2017-06-28T09:21:25.434Z,238
2017-06-28T09:22:27.851Z,238
2017-06-28T09:23:29.913Z,234
2017-06-28T09:24:31.983Z,219
2017-06-28T09:25:34.049Z,212
2017-06-28T09:26:36.468Z,207
2017-06-28T09:27:38.527Z,206
2017-06-28T09:28:40.583Z,205
2017-06-28T09:29:42.984Z,214
2017-06-28T09:30:45.045Z,227
2017-06-28T09:31:47.111Z,246
2017-06-28T09:32:49.176Z,270
2017-06-28T09:33:51.230Z,279
2017-06-28T09:34:53.298Z,282
2017-06-28T09:35:55.370Z,279
2017-06-28T09:36:57.441Z,273
2017-06-28T09:37:59.837Z,273
2017-06-28T09:39:01.908Z,289
2017-06-28T09:40:03.983Z,333
2017-06-28T09:41:06.042Z,378
2017-06-28T09:42:08.103Z,512
2017-06-28T09:43:10.169Z,671
2017-06-28T09:44:12.240Z,523
2017-06-28T09:45:14.308Z,629
2017-06-28T09:46:17.053Z,652
2017-06-28T09:47:19.113Z,687
2017-06-28T09:48:21.179Z,416
2017-06-28T09:49:23.591Z,596
2017-06-28T09:50:25.637Z,615
2017-06-28T09:51:28.186Z,530
2017-06-28T09:52:33.267Z,768
2017-06-28T09:53:35.650Z,551
2017-06-28T09:54:37.684Z,567
2017-06-28T09:55:39.723Z,529
2017-06-28T09:56:41.743Z,527
2017-06-28T09:57:43.782Z,845
2017-06-28T09:58:45.813Z,598
2017-06-28T09:59:48.178Z,462
2017-06-28T10:00:50.210Z,339
2017-06-28T10:01:52.242Z,763
2017-06-28T10:02:54.612Z,676
2017-06-28T10:03:56.638Z,725
2017-06-28T10:04:58.666Z,670
2017-06-28T10:06:01.038Z,639
2017-06-28T10:07:03.422Z,724
2017-06-28T10:08:05.453Z,714
2017-06-28T10:09:07.484Z,685
2017-06-28T10:10:09.512Z,608
2017-06-28T10:11:11.547Z,661
2017-06-28T10:12:13.575Z,727
2017-06-28T10:13:15.656Z,755
2017-06-28T10:14:18.365Z,720
2017-06-28T10:15:20.401Z,749
2017-06-28T10:16:22.441Z,707
2017-06-28T10:17:24.477Z,701
2017-06-28T10:18:26.512Z,689
2017-06-28T10:19:28.547Z,655
2017-06-28T10:20:30.927Z,698
2017-06-28T10:21:32.964Z,735
2017-06-28T10:22:35.013Z,723
2017-06-28T10:23:37.050Z,670
2017-06-28T10:24:39.415Z,657
2017-06-28T10:25:41.452Z,627
2017-06-28T10:26:43.502Z,748
2017-06-28T10:27:45.540Z,769
2017-06-28T10:28:47.583Z,768
2017-06-28T10:29:49.622Z,851
2017-06-28T10:30:51.998Z,909
2017-06-28T10:31:54.027Z,836
2017-06-28T10:32:56.094Z,779
2017-06-28T10:33:58.133Z,809
2017-06-28T10:35:00.165Z,754
2017-06-28T10:36:02.203Z,698
2017-06-28T10:37:04.237Z,714
2017-06-28T10:38:06.272Z,808
2017-06-28T10:39:08.303Z,834
2017-06-28T10:40:10.339Z,836
2017-06-28T10:41:12.713Z,926
2017-06-28T10:42:14.745Z,893
2017-06-28T10:43:16.783Z,831
2017-06-28T10:44:18.812Z,870
2017-06-28T10:45:21.188Z,927
2017-06-28T10:46:23.222Z,1046
2017-06-28T10:47:25.255Z,994
2017-06-28T10:48:27.666Z,922
2017-06-28T10:49:29.728Z,958
2017-06-28T10:50:31.768Z,911
2017-06-28T10:51:33.800Z,934
2017-06-28T10:52:36.180Z,925
2017-06-28T10:53:38.218Z,971
2017-06-28T10:54:40.253Z,987
2017-06-28T10:55:42.289Z,995
2017-06-28T10:56:44.325Z,983
2017-06-28T10:57:46.382Z,834
2017-06-28T10:58:48.421Z,880
2017-06-28T10:59:50.459Z,795
2017-06-28T11:00:52.494Z,666
2017-06-28T11:01:54.524Z,602
2017-06-28T11:02:56.568Z,458
2017-06-28T11:03:58.611Z,575
2017-06-28T11:05:00.642Z,541
2017-06-28T11:06:02.681Z,661
2017-06-28T11:07:04.716Z,745
2017-06-28T11:08:06.754Z,756
2017-06-28T11:09:08.789Z,689
2017-06-28T11:10:10.825Z,563
2017-06-28T11:11:13.191Z,648
2017-06-28T11:12:15.231Z,589
2017-06-28T11:13:17.939Z,622
2017-06-28T11:14:20.655Z,871
2017-06-28T11:15:23.023Z,788
2017-06-28T11:16:25.060Z,706
2017-06-28T11:17:27.432Z,525
2017-06-28T11:18:29.496Z,452
2017-06-28T11:19:31.530Z,418
2017-06-28T11:20:33.567Z,508
2017-06-28T11:21:35.959Z,548
2017-06-28T11:22:37.992Z,535
2017-06-28T11:23:40.371Z,556
2017-06-28T11:24:42.742Z,544
2017-06-28T11:25:44.779Z,525
2017-06-28T11:26:46.802Z,484
2017-06-28T11:27:49.175Z,598
2017-06-28T11:28:51.215Z,612
2017-06-28T11:29:53.590Z,462
2017-06-28T11:30:55.623Z,391
2017-06-28T11:31:57.657Z,372
2017-06-28T11:32:59.690Z,384
2017-06-28T11:34:01.726Z,461
2017-06-28T11:35:03.756Z,584
2017-06-28T11:36:05.783Z,580
2017-06-28T11:37:07.818Z,687
2017-06-28T11:38:09.853Z,672
2017-06-28T11:39:11.886Z,697
2017-06-28T11:40:13.925Z,666
2017-06-28T11:41:15.957Z,664
2017-06-28T11:42:17.993Z,648
2017-06-28T11:43:20.367Z,594
2017-06-28T11:44:22.395Z,624
2017-06-28T11:45:24.435Z,647
2017-06-28T11:46:26.469Z,542
2017-06-28T11:47:28.507Z,565
2017-06-28T11:48:30.540Z,699
2017-06-28T11:49:32.593Z,769
2017-06-28T11:50:34.625Z,739
2017-06-28T11:51:36.682Z,713
2017-06-28T11:52:38.724Z,713
2017-06-28T11:53:40.761Z,551
2017-06-28T11:54:42.791Z,618
2017-06-28T11:55:44.824Z,607
2017-06-28T11:56:46.857Z,548
2017-06-28T11:57:49.226Z,574
2017-06-28T11:58:51.257Z,685
2017-06-28T11:59:53.302Z,788
2017-06-28T12:00:55.337Z,772
2017-06-28T12:01:57.372Z,768
2017-06-28T12:03:00.087Z,822
2017-06-28T12:04:02.122Z,820
2017-06-28T12:05:04.153Z,756
2017-06-28T12:06:06.190Z,809
2017-06-28T12:07:08.228Z,840
2017-06-28T12:08:10.266Z,832
2017-06-28T12:09:12.301Z,830
2017-06-28T12:10:14.335Z,732
2017-06-28T12:11:16.366Z,748
2017-06-28T12:12:18.403Z,749
2017-06-28T12:13:20.438Z,660
2017-06-28T12:14:22.475Z,763
2017-06-28T12:15:24.857Z,836
2017-06-28T12:16:26.886Z,819
2017-06-28T12:17:28.922Z,769
2017-06-28T12:18:30.959Z,728
2017-06-28T12:19:32.994Z,637
2017-06-28T12:20:35.046Z,592
2017-06-28T12:21:37.424Z,571
2017-06-28T12:22:39.798Z,650
2017-06-28T12:23:41.838Z,626
2017-06-28T12:24:43.879Z,543
2017-06-28T12:25:45.925Z,554
2017-06-28T12:26:47.958Z,601
2017-06-28T12:27:49.998Z,667
2017-06-28T12:28:52.034Z,635
2017-06-28T12:29:54.076Z,633
2017-06-28T12:30:56.115Z,607
2017-06-28T12:31:58.146Z,590
2017-06-28T12:33:00.527Z,541
2017-06-28T12:34:02.567Z,567
2017-06-28T12:35:04.602Z,620
2017-06-28T12:36:06.643Z,616
2017-06-28T12:37:08.688Z,653
2017-06-28T12:38:10.723Z,640
2017-06-28T12:39:12.760Z,632
2017-06-28T12:40:14.797Z,674
2017-06-28T12:41:17.173Z,705
2017-06-28T12:42:19.207Z,807
2017-06-28T12:43:21.247Z,731
2017-06-28T12:44:23.633Z,745
2017-06-28T12:45:26.022Z,793
2017-06-28T12:46:28.058Z,766
2017-06-28T12:47:30.095Z,714
2017-06-28T12:48:32.139Z,687
2017-06-28T12:49:34.180Z,790
2017-06-28T12:50:36.572Z,738
2017-06-28T12:51:38.604Z,724
2017-06-28T12:52:40.642Z,757
2017-06-28T12:53:42.679Z,732
2017-06-28T12:54:44.725Z,713
2017-06-28T12:55:46.763Z,611
2017-06-28T12:56:48.797Z,624
2017-06-28T12:57:50.833Z,694
2017-06-28T12:58:52.882Z,666
2017-06-28T12:59:55.255Z,570
2017-06-28T13:00:57.293Z,544
2017-06-28T13:01:59.331Z,514
2017-06-28T13:03:01.373Z,340
2017-06-28T13:04:03.760Z,619
2017-06-28T13:05:05.799Z,664
2017-06-28T13:06:07.845Z,637
2017-06-28T13:07:09.885Z,626
2017-06-28T13:08:12.257Z,590
2017-06-28T13:09:14.304Z,581
2017-06-28T13:10:16.342Z,535
2017-06-28T13:11:18.379Z,522
2017-06-28T13:12:20.421Z,524
2017-06-28T13:13:22.800Z,265
2017-06-28T13:14:24.840Z,235
2017-06-28T13:15:26.877Z,206
2017-06-28T13:16:29.258Z,199
2017-06-28T13:17:31.308Z,211
2017-06-28T13:18:33.678Z,238
2017-06-28T13:19:35.716Z,247
2017-06-28T13:20:37.753Z,257
2017-06-28T13:21:39.786Z,271
2017-06-28T13:22:41.823Z,279
2017-06-28T13:23:43.869Z,294
2017-06-28T13:24:45.914Z,276
2017-06-28T13:25:47.952Z,262
2017-06-28T13:26:49.985Z,254
2017-06-28T13:27:52.024Z,254
2017-06-28T13:28:54.445Z,268
2017-06-28T13:29:56.480Z,264
2017-06-28T13:30:58.516Z,273
2017-06-28T13:32:00.880Z,286
2017-06-28T13:33:02.921Z,305
2017-06-28T13:34:04.960Z,313
2017-06-28T13:35:06.996Z,267
2017-06-28T13:36:09.380Z,262
2017-06-28T13:37:11.415Z,254
2017-06-28T13:38:13.455Z,327
2017-06-28T13:39:15.492Z,408
2017-06-28T13:40:17.532Z,339
2017-06-28T13:41:19.579Z,291
2017-06-28T13:42:21.618Z,304
2017-06-28T13:43:23.658Z,320
2017-06-28T13:44:26.032Z,326
2017-06-28T13:45:28.068Z,327
2017-06-28T13:46:30.109Z,313
2017-06-28T13:47:32.144Z,302
2017-06-28T13:48:34.180Z,279
2017-06-28T13:49:36.217Z,275
2017-06-28T13:50:38.256Z,264
2017-06-28T13:51:40.297Z,248
2017-06-28T13:52:42.337Z,237
2017-06-28T13:53:44.381Z,233
2017-06-28T13:54:46.421Z,224
2017-06-28T13:55:48.457Z,223
2017-06-28T13:56:50.495Z,219
2017-06-28T13:57:52.531Z,214
2017-06-28T13:58:54.566Z,211
2017-06-28T13:59:56.953Z,210
2017-06-28T14:00:58.991Z,221
2017-06-28T14:02:01.022Z,225
2017-06-28T14:03:03.068Z,227
2017-06-28T14:04:05.476Z,230
2017-06-28T14:05:07.521Z,219
2017-06-28T14:06:09.550Z,197
2017-06-28T14:07:11.591Z,190
2017-06-28T14:08:13.629Z,207
2017-06-28T14:09:16.001Z,213
2017-06-28T14:10:18.047Z,206
2017-06-28T14:11:20.087Z,201
2017-06-28T14:12:22.124Z,195
2017-06-28T14:13:24.167Z,191
2017-06-28T14:14:26.193Z,192
2017-06-28T14:15:28.230Z,198
2017-06-28T14:16:30.265Z,204
2017-06-28T14:17:32.300Z,213
2017-06-28T14:18:34.333Z,222
2017-06-28T14:19:36.374Z,215
2017-06-28T14:20:38.404Z,225
2017-06-28T14:21:40.437Z,252
2017-06-28T14:22:42.469Z,375
2017-06-28T14:23:44.507Z,255
2017-06-28T14:24:46.537Z,363
2017-06-28T14:25:48.577Z,257
2017-06-28T14:26:50.645Z,259
2017-06-28T14:27:52.677Z,230
2017-06-28T14:28:54.717Z,209
2017-06-28T14:29:56.754Z,193
2017-06-28T14:30:58.788Z,178
2017-06-28T14:32:00.826Z,169
2017-06-28T14:33:02.856Z,168
2017-06-28T14:34:04.893Z,167
2017-06-28T14:35:06.930Z,174
2017-06-28T14:36:08.960Z,182
2017-06-28T14:37:11.000Z,192
2017-06-28T14:38:13.048Z,192
2017-06-28T14:39:15.079Z,199
2017-06-28T14:40:17.114Z,193
2017-06-28T14:41:19.145Z,187
2017-06-28T14:42:21.183Z,180
2017-06-28T14:43:23.221Z,181
2017-06-28T14:44:25.259Z,183
2017-06-28T14:45:27.287Z,195
2017-06-28T14:46:29.320Z,272
2017-06-28T14:47:31.368Z,255
2017-06-28T14:48:33.749Z,277
2017-06-28T14:49:36.137Z,265
2017-06-28T14:50:38.176Z,229
2017-06-28T14:51:40.241Z,200
2017-06-28T14:52:42.285Z,193
2017-06-28T14:53:44.325Z,181
2017-06-28T14:54:46.371Z,163
2017-06-28T14:55:48.409Z,145
2017-06-28T14:56:50.441Z,132
2017-06-28T14:57:52.473Z,122
2017-06-28T14:58:54.504Z,117
2017-06-28T14:59:56.574Z,121
2017-06-28T15:00:58.616Z,131
2017-06-28T15:02:00.649Z,140
2017-06-28T15:03:02.690Z,148
2017-06-28T15:04:05.060Z,163
2017-06-28T15:05:07.101Z,140
2017-06-28T15:06:09.143Z,141
2017-06-28T15:07:11.215Z,152
2017-06-28T15:08:13.248Z,171
2017-06-28T15:09:15.286Z,177
2017-06-28T15:10:17.324Z,167
2017-06-28T15:11:19.359Z,168
2017-06-28T15:12:21.391Z,141
2017-06-28T15:13:23.435Z,136
2017-06-28T15:14:25.469Z,134
2017-06-28T15:15:27.856Z,131
2017-06-28T15:16:29.889Z,122
2017-06-28T15:17:31.922Z,114
2017-06-28T15:18:33.976Z,113
2017-06-28T15:19:36.007Z,121
2017-06-28T15:20:38.042Z,128
2017-06-28T15:21:40.074Z,133
2017-06-28T15:22:42.108Z,135
2017-06-28T15:23:44.480Z,140
2017-06-28T15:24:46.512Z,147
2017-06-28T15:25:48.546Z,192
2017-06-28T15:26:50.577Z,182
2017-06-28T15:27:52.980Z,175
2017-06-28T15:28:55.013Z,170
2017-06-28T15:29:57.038Z,160
2017-06-28T15:30:59.407Z,143
2017-06-28T15:32:01.440Z,136
2017-06-28T15:33:03.506Z,132
2017-06-28T15:34:05.537Z,130
2017-06-28T15:35:07.577Z,127
2017-06-28T15:36:09.611Z,125
2017-06-28T15:37:11.641Z,122
2017-06-28T15:38:13.678Z,119
2017-06-28T15:39:15.727Z,114
2017-06-28T15:40:17.769Z,105
2017-06-28T15:41:20.139Z,95
2017-06-28T15:42:22.165Z,86
2017-06-28T15:43:24.534Z,77
2017-06-28T15:44:26.567Z,69
2017-06-28T15:45:28.597Z,63
2017-06-28T15:46:30.641Z,57
2017-06-28T15:47:33.049Z,53
2017-06-28T15:48:35.764Z,52
2017-06-28T15:49:37.794Z,49
2017-06-28T15:50:40.162Z,46
2017-06-28T15:51:42.194Z,45
2017-06-28T15:52:44.557Z,40
2017-06-28T15:53:46.929Z,35
2017-06-28T15:54:48.971Z,34
2017-06-28T15:55:50.998Z,34
2017-06-28T15:56:53.392Z,40
2017-06-28T15:57:55.761Z,49
2017-06-28T15:58:58.487Z,59
2017-06-28T16:00:00.521Z,65
2017-06-28T16:01:04.357Z,64
2017-06-28T16:02:06.393Z,62
2017-06-28T16:03:08.770Z,60
2017-06-28T16:04:10.815Z,55
2017-06-28T16:05:12.846Z,49
2017-06-28T16:06:14.874Z,41
2017-06-28T16:07:17.191Z,38
2017-06-28T16:08:19.566Z,34
2017-06-28T16:09:21.925Z,30
2017-06-28T16:10:23.964Z,29
2017-06-28T16:11:25.986Z,33
2017-06-28T16:12:28.026Z,34
2017-06-28T16:13:30.064Z,36
2017-06-28T16:14:32.090Z,41
2017-06-28T16:15:34.142Z,45
2017-06-28T16:16:36.180Z,46
2017-06-28T16:17:38.538Z,40
2017-06-28T16:18:41.667Z,34
2017-06-28T16:19:44.056Z,32
2017-06-28T16:20:46.100Z,30
2017-06-28T16:21:48.145Z,35
2017-06-28T16:22:50.561Z,47
2017-06-28T16:23:52.598Z,61
2017-06-28T16:24:54.986Z,69
2017-06-28T16:25:57.013Z,74
2017-06-28T16:26:59.047Z,75
2017-06-28T16:28:01.078Z,78
2017-06-28T16:29:03.111Z,84
2017-06-28T16:30:05.141Z,88
2017-06-28T16:31:07.167Z,90
2017-06-28T16:32:09.192Z,95
2017-06-28T16:33:11.224Z,93
2017-06-28T16:34:13.605Z,88
2017-06-28T16:35:15.643Z,83
2017-06-28T16:36:17.679Z,75
2017-06-28T16:37:19.715Z,63
2017-06-28T16:38:21.756Z,47
2017-06-28T16:39:23.793Z,38
2017-06-28T16:40:25.833Z,37
2017-06-28T16:41:27.899Z,39
2017-06-28T16:42:29.929Z,44
2017-06-28T16:43:32.302Z,52
2017-06-28T16:44:34.338Z,51
2017-06-28T16:45:36.777Z,49
2017-06-28T16:46:39.931Z,55
2017-06-28T16:47:43.075Z,61
2017-06-28T16:48:46.405Z,57
2017-06-28T16:49:52.971Z,55
2017-06-28T16:50:56.616Z,52
2017-06-28T16:51:59.540Z,50
2017-06-28T16:53:01.579Z,54
2017-06-28T16:54:03.633Z,57
2017-06-28T16:55:05.664Z,43
2017-06-28T16:56:08.032Z,30
2017-06-28T16:57:10.073Z,28
2017-06-28T16:58:12.105Z,31
2017-06-28T16:59:14.148Z,38
2017-06-28T17:00:16.534Z,43
2017-06-28T17:01:18.565Z,49
2017-06-28T17:02:20.607Z,57
2017-06-28T17:03:22.654Z,63
2017-06-28T17:04:24.690Z,61
2017-06-28T17:05:26.729Z,59
2017-06-28T17:06:29.090Z,55
2017-06-28T17:07:31.128Z,48
2017-06-28T17:08:33.164Z,43
2017-06-28T17:09:35.559Z,38
2017-06-28T17:10:37.597Z,38
2017-06-28T17:11:39.630Z,42
2017-06-28T17:12:41.662Z,41
2017-06-28T17:13:44.372Z,39
2017-06-28T17:14:46.405Z,41
2017-06-28T17:15:48.443Z,50
2017-06-28T17:16:50.821Z,56
2017-06-28T17:17:53.529Z,59
2017-06-28T17:18:55.575Z,59
2017-06-28T17:19:57.951Z,58
2017-06-28T17:20:59.985Z,56
2017-06-28T17:22:02.024Z,53
2017-06-28T17:23:04.061Z,49
2017-06-28T17:24:06.086Z,44
2017-06-28T17:25:08.117Z,43
2017-06-28T17:26:10.164Z,41
2017-06-28T17:27:12.191Z,32
2017-06-28T17:28:14.218Z,25
2017-06-28T17:29:16.583Z,20
2017-06-28T17:30:18.611Z,18
2017-06-28T17:31:20.638Z,17
2017-06-28T17:32:22.681Z,14
2017-06-28T17:33:25.055Z,12
2017-06-28T17:34:27.422Z,14
2017-06-28T17:35:29.447Z,16
2017-06-28T17:36:31.469Z,15
2017-06-28T17:37:33.503Z,18
2017-06-28T17:38:36.217Z,21
2017-06-28T17:39:38.281Z,21
2017-06-28T17:40:40.317Z,22
2017-06-28T17:41:42.346Z,24
2017-06-28T17:42:44.397Z,22
2017-06-28T17:43:46.758Z,23
2017-06-28T17:44:49.134Z,25
2017-06-28T17:45:51.159Z,29
2017-06-28T17:46:53.520Z,31
2017-06-28T17:47:55.891Z,29
2017-06-28T17:48:58.607Z,26
2017-06-28T17:50:00.629Z,23
2017-06-28T17:51:02.655Z,20
2017-06-28T17:52:04.692Z,19
2017-06-28T17:53:06.722Z,20
2017-06-28T17:54:08.749Z,20
2017-06-28T17:55:11.112Z,21
2017-06-28T17:56:13.138Z,22
2017-06-28T17:57:15.167Z,18
2017-06-28T17:58:17.193Z,16
2017-06-28T17:59:19.551Z,14
2017-06-28T18:00:21.579Z,12
2017-06-28T18:01:23.615Z,13
2017-06-28T18:02:25.994Z,18
2017-06-28T18:03:28.027Z,22
2017-06-28T18:04:30.087Z,22
2017-06-28T18:05:32.461Z,15
2017-06-28T18:06:34.478Z,10
2017-06-28T18:07:36.840Z,13
2017-06-28T18:08:38.874Z,18
2017-06-28T18:09:40.906Z,17
2017-06-28T18:10:42.938Z,16
2017-06-28T18:11:44.965Z,15
2017-06-28T18:12:46.992Z,17
2017-06-28T18:13:49.363Z,23
2017-06-28T18:14:51.389Z,29
2017-06-28T18:15:53.415Z,27
2017-06-28T18:16:55.434Z,22
2017-06-28T18:17:57.458Z,19
2017-06-28T18:18:59.490Z,19
2017-06-28T18:20:01.518Z,21
2017-06-28T18:21:03.892Z,23
2017-06-28T18:22:06.254Z,23
2017-06-28T18:23:08.618Z,23
2017-06-28T18:24:10.644Z,25
2017-06-28T18:25:12.671Z,26
2017-06-28T18:26:14.693Z,27
2017-06-28T18:27:16.717Z,27
2017-06-28T18:28:18.742Z,27
2017-06-28T18:29:21.120Z,27
2017-06-28T18:30:23.136Z,28
2017-06-28T18:31:25.161Z,28
2017-06-28T18:32:27.207Z,28
2017-06-28T18:33:29.229Z,27
2017-06-28T18:34:31.258Z,26
2017-06-28T18:35:33.284Z,24
2017-06-28T18:36:35.304Z,24
2017-06-28T18:37:37.324Z,23
2017-06-28T18:38:39.356Z,22
2017-06-28T18:39:41.725Z,22
2017-06-28T18:40:43.764Z,22
2017-06-28T18:41:45.789Z,23
2017-06-28T18:42:48.155Z,23
2017-06-28T18:43:50.183Z,23
2017-06-28T18:44:52.208Z,24
2017-06-28T18:45:54.234Z,24
2017-06-28T18:46:56.592Z,24
2017-06-28T18:47:58.623Z,23
2017-06-28T18:49:00.654Z,22
2017-06-28T18:50:03.031Z,20
2017-06-28T18:51:05.062Z,19
2017-06-28T18:52:07.085Z,20
2017-06-28T18:53:09.113Z,20
2017-06-28T18:54:11.137Z,19
2017-06-28T18:55:13.501Z,17
2017-06-28T18:56:15.532Z,17
2017-06-28T18:57:17.558Z,16
2017-06-28T18:58:19.582Z,16
2017-06-28T18:59:21.604Z,16
2017-06-28T19:00:23.630Z,15
2017-06-28T19:01:25.652Z,15
2017-06-28T19:02:28.034Z,15
2017-06-28T19:03:30.065Z,15
2017-06-28T19:04:32.092Z,14
2017-06-28T19:05:34.112Z,14
2017-06-28T19:06:36.471Z,14
2017-06-28T19:07:38.495Z,14
2017-06-28T19:08:40.526Z,13
2017-06-28T19:09:42.595Z,13
2017-06-28T19:10:44.626Z,13
2017-06-28T19:11:46.655Z,12
2017-06-28T19:12:48.676Z,12
2017-06-28T19:13:50.696Z,11
2017-06-28T19:14:52.727Z,10
2017-06-28T19:15:54.757Z,10
2017-06-28T19:16:56.789Z,9
2017-06-28T19:17:58.810Z,9
2017-06-28T19:19:00.832Z,8
2017-06-28T19:20:02.853Z,7
2017-06-28T19:21:05.229Z,7
2017-06-28T19:22:07.961Z,7
2017-06-28T19:23:09.986Z,7
2017-06-28T19:24:12.042Z,7
2017-06-28T19:25:14.068Z,7
2017-06-28T19:26:16.426Z,6
2017-06-28T19:27:18.448Z,6
2017-06-28T19:28:20.464Z,6
2017-06-28T19:29:22.498Z,5
2017-06-28T19:30:25.551Z,5
2017-06-28T19:31:27.574Z,5
2017-06-28T19:32:29.593Z,4
2017-06-28T19:33:31.616Z,4
2017-06-28T19:34:33.978Z,4
2017-06-28T19:35:35.998Z,4
2017-06-28T19:36:38.017Z,4
2017-06-28T19:37:40.038Z,3
2017-06-28T19:38:42.059Z,3
2017-06-28T19:39:44.081Z,3
2017-06-28T19:40:46.114Z,3
2017-06-28T19:41:48.176Z,3
2017-06-28T19:42:50.236Z,3
2017-06-28T19:43:52.263Z,2
2017-06-28T19:44:54.288Z,2
2017-06-28T19:45:56.319Z,2
2017-06-28T19:46:58.340Z,2
2017-06-28T19:48:00.694Z,2
2017-06-28T19:49:02.723Z,2
2017-06-28T19:50:04.747Z,1
2017-06-28T19:51:07.113Z,1
2017-06-28T19:52:09.148Z,1
2017-06-28T19:53:11.170Z,1
2017-06-28T19:54:13.193Z,1
2017-06-28T19:55:15.220Z,1
2017-06-28T19:56:17.237Z,1
2017-06-28T19:57:19.601Z,1
2017-06-28T19:58:21.637Z,1
2017-06-28T19:59:23.661Z,0
2017-06-28T20:00:25.678Z,0
2017-06-28T20:01:27.696Z,0
2017-06-28T20:02:29.719Z,0
2017-06-28T20:03:31.742Z,0
2017-06-28T20:04:33.760Z,0
2017-06-28T20:05:35.789Z,0
2017-06-28T20:06:37.809Z,0
2017-06-28T20:07:40.192Z,0
2017-06-28T20:08:42.215Z,0
2017-06-28T20:09:44.606Z,0
2017-06-28T20:10:46.976Z,0
2017-06-28T20:11:48.995Z,0
2017-06-28T20:12:51.018Z,0
2017-06-28T20:13:53.037Z,0
2017-06-28T20:14:55.059Z,0
2017-06-28T20:15:57.074Z,0
2017-06-28T20:16:59.435Z,0
2017-06-28T20:18:01.456Z,0
2017-06-28T20:19:03.810Z,0
2017-06-28T20:20:05.841Z,0
2017-06-28T20:21:07.859Z,0
2017-06-28T20:22:10.217Z,0
2017-06-28T20:23:12.238Z,0
2017-06-28T20:24:14.264Z,0
2017-06-28T20:25:16.286Z,0
2017-06-28T20:26:18.645Z,0
2017-06-28T20:27:20.660Z,0
2017-06-28T20:28:23.027Z,0
2017-06-28T20:29:25.054Z,0
2017-06-28T20:30:27.078Z,0
2017-06-28T20:31:29.130Z,0
2017-06-28T20:32:31.486Z,0
2017-06-28T20:33:33.504Z,0
2017-06-28T20:34:35.522Z,0
2017-06-28T20:35:37.539Z,0
2017-06-28T20:36:39.911Z,0
2017-06-28T20:37:41.933Z,0
2017-06-28T20:38:43.958Z,0
2017-06-28T20:39:46.320Z,0
2017-06-28T20:40:48.349Z,0
2017-06-28T20:41:50.720Z,0
2017-06-28T20:42:52.743Z,0
2017-06-28T20:43:54.761Z,0
2017-06-28T20:44:57.118Z,0
2017-06-28T20:45:59.140Z,0
2017-06-28T20:47:01.167Z,0
2017-06-28T20:48:03.228Z,0
2017-06-28T20:49:05.585Z,0
2017-06-28T20:50:07.607Z,0
2017-06-28T20:51:09.625Z,0
2017-06-28T20:52:11.641Z,0
2017-06-28T20:53:13.665Z,0
2017-06-28T20:54:15.685Z,0
2017-06-28T20:55:17.706Z,0
2017-06-28T20:56:19.727Z,0
2017-06-28T20:57:22.008Z,0
2017-06-28T20:58:24.028Z,0
2017-06-28T20:59:26.727Z,0
2017-06-28T21:00:28.746Z,0
2017-06-28T21:01:30.769Z,0
2017-06-28T21:02:32.786Z,0
2017-06-28T21:03:34.802Z,0
2017-06-28T21:04:36.823Z,0
2017-06-28T21:05:38.840Z,0
2017-06-28T21:06:40.862Z,0
2017-06-28T21:07:43.220Z,0
2017-06-28T21:08:45.231Z,0
2017-06-28T21:09:47.252Z,0
2017-06-28T21:10:49.657Z,0
2017-06-28T21:11:51.674Z,0
2017-06-28T21:12:54.367Z,0
2017-06-28T21:13:56.720Z,0
2017-06-28T21:14:58.742Z,0
2017-06-28T21:16:00.754Z,0
2017-06-28T21:17:02.771Z,0
2017-06-28T21:18:04.798Z,0
2017-06-28T21:19:06.819Z,0
2017-06-28T21:20:08.835Z,0
2017-06-28T21:21:10.867Z,0
2017-06-28T21:22:12.882Z,0
2017-06-28T21:23:14.901Z,0
2017-06-28T21:24:16.919Z,0
2017-06-28T21:25:19.290Z,0
2017-06-28T21:26:21.644Z,0
2017-06-28T21:27:23.660Z,0
2017-06-28T21:28:26.019Z,0
2017-06-28T21:29:28.040Z,0
2017-06-28T21:30:30.065Z,0
2017-06-28T21:31:32.079Z,0
2017-06-28T21:32:34.095Z,0
2017-06-28T21:33:36.118Z,0
2017-06-28T21:34:38.135Z,0
2017-06-28T21:35:40.160Z,0
2017-06-28T21:36:42.518Z,0
2017-06-28T21:37:44.889Z,0
2017-06-28T21:38:46.909Z,0
2017-06-28T21:39:49.602Z,0
2017-06-28T21:40:51.622Z,0
2017-06-28T21:41:53.643Z,0
2017-06-28T21:42:55.658Z,0
2017-06-28T21:43:57.674Z,0
2017-06-28T21:44:59.687Z,0
2017-06-28T21:46:01.707Z,0
2017-06-28T21:47:03.733Z,0
2017-06-28T21:48:05.752Z,0
2017-06-28T21:49:08.110Z,0
2017-06-28T21:50:10.137Z,0
2017-06-28T21:51:12.155Z,0
2017-06-28T21:52:14.179Z,0
2017-06-28T21:53:16.191Z,0
2017-06-28T21:54:18.211Z,0
2017-06-28T21:55:20.581Z,0
2017-06-28T21:56:22.598Z,0
2017-06-28T21:57:24.949Z,0
2017-06-28T21:58:27.315Z,0
2017-06-28T21:59:29.327Z,0
2017-06-28T22:00:31.353Z,0
2017-06-28T22:01:33.381Z,0
2017-06-28T22:02:35.743Z,0
2017-06-28T22:03:37.767Z,0
2017-06-28T22:04:39.786Z,0
2017-06-28T22:05:41.807Z,0
2017-06-28T22:06:43.821Z,0
2017-06-28T22:07:46.167Z,0
2017-06-28T22:08:48.865Z,0
2017-06-28T22:09:51.219Z,0
2017-06-28T22:10:53.234Z,0
2017-06-28T22:11:55.250Z,0
2017-06-28T22:12:57.273Z,0
2017-06-28T22:13:59.979Z,0
2017-06-28T22:15:01.989Z,0
2017-06-28T22:16:04.005Z,0
2017-06-28T22:17:06.027Z,0
2017-06-28T22:18:08.042Z,0
2017-06-28T22:19:10.061Z,0
2017-06-28T22:20:12.079Z,0
2017-06-28T22:21:14.096Z,0
2017-06-28T22:22:16.121Z,0
2017-06-28T22:23:18.145Z,0
2017-06-28T22:24:20.502Z,0
2017-06-28T22:25:22.530Z,0
2017-06-28T22:26:25.417Z,0
2017-06-28T22:27:27.441Z,0
2017-06-28T22:28:29.810Z,0
2017-06-28T22:29:31.861Z,0
2017-06-28T22:30:34.224Z,0